createdAt,value
2022-07-31T00:00:29.197Z,2.85
2022-07-31T00:02:58.749Z,2.47
2022-07-31T00:05:27.581Z,2.78
2022-07-31T00:07:57.309Z,2.60
2022-07-31T00:10:26.227Z,2.60
2022-07-31T00:12:56.038Z,2.55
2022-07-31T00:15:24.724Z,2.60
2022-07-31T00:17:53.053Z,2.47
2022-07-31T00:20:21.503Z,2.65
2022-07-31T00:22:50.696Z,2.30
2022-07-31T00:25:20.178Z,2.67
2022-07-31T00:27:48.681Z,2.65
2022-07-31T00:30:18.445Z,2.40
2022-07-31T00:32:46.844Z,2.70
2022-07-31T00:35:17.420Z,2.40
2022-07-31T00:37:46.205Z,2.85
2022-07-31T00:40:16.666Z,2.70
2022-07-31T00:42:45.459Z,2.97
2022-07-31T00:45:14.272Z,2.50
2022-07-31T00:47:44.754Z,2.60
2022-07-31T00:50:14.310Z,2.83
2022-07-31T00:52:42.612Z,2.80
2022-07-31T00:55:11.431Z,2.78
2022-07-31T00:57:39.870Z,2.42
2022-07-31T01:00:09.162Z,2.58
2022-07-31T01:02:38.532Z,3.00
2022-07-31T01:05:18.996Z,2.85
2022-07-31T01:07:48.989Z,3.00
2022-07-31T01:10:27.074Z,2.60
2022-07-31T01:13:00.663Z,2.80
2022-07-31T01:15:30.130Z,2.75
2022-07-31T01:17:59.681Z,2.85
2022-07-31T01:20:30.782Z,2.88
2022-07-31T01:23:23.349Z,2.72
2022-07-31T01:26:04.873Z,3.15
2022-07-31T01:28:59.170Z,3.05
2022-07-31T01:31:34.615Z,2.97
2022-07-31T01:34:08.542Z,2.92
2022-07-31T01:36:40.809Z,2.90
2022-07-31T01:39:09.534Z,2.70
2022-07-31T01:41:44.262Z,3.00
2022-07-31T01:44:16.960Z,3.00
2022-07-31T01:46:47.842Z,2.72
2022-07-31T01:49:17.197Z,2.75
2022-07-31T01:51:47.407Z,2.70
2022-07-31T01:54:18.336Z,3.15
2022-07-31T01:56:50.010Z,2.72
2022-07-31T01:59:22.892Z,3.50
2022-07-31T02:01:53.447Z,3.33
2022-07-31T02:05:08.426Z,2.92
2022-07-31T02:07:40.260Z,3.15
2022-07-31T02:10:11.011Z,3.10
2022-07-31T02:12:40.652Z,3.10
2022-07-31T02:15:13.543Z,3.08
2022-07-31T02:17:44.668Z,3.20
2022-07-31T02:20:16.042Z,3.00
2022-07-31T02:22:44.394Z,3.22
2022-07-31T02:25:12.889Z,3.58
2022-07-31T02:27:57.783Z,3.03
2022-07-31T02:30:39.114Z,3.22
2022-07-31T02:33:11.442Z,3.10
2022-07-31T02:35:44.125Z,2.88
2022-07-31T02:38:22.539Z,2.88
2022-07-31T02:40:52.356Z,3.10
2022-07-31T02:43:21.819Z,3.00
2022-07-31T02:45:51.814Z,2.78
2022-07-31T02:48:20.348Z,3.10
2022-07-31T02:50:49.108Z,3.10
2022-07-31T02:53:17.625Z,2.90
2022-07-31T02:55:46.701Z,3.20
2022-07-31T02:58:15.135Z,2.90
2022-07-31T03:00:43.841Z,3.13
2022-07-31T03:03:13.670Z,3.08
2022-07-31T03:05:42.004Z,3.28
2022-07-31T03:08:10.340Z,3.08
2022-07-31T03:10:38.794Z,2.92
2022-07-31T03:13:08.567Z,3.60
2022-07-31T03:15:38.146Z,3.33
2022-07-31T03:18:11.190Z,3.00
2022-07-31T03:20:43.758Z,3.20
2022-07-31T03:23:14.105Z,3.20
2022-07-31T03:25:43.358Z,3.25
2022-07-31T03:28:11.739Z,3.00
2022-07-31T03:30:40.249Z,2.90
2022-07-31T03:33:08.572Z,3.15
2022-07-31T03:35:39.838Z,3.25
2022-07-31T03:38:40.881Z,3.70
2022-07-31T03:41:02.864Z,3.35
2022-07-31T03:43:46.928Z,3.60
2022-07-31T03:46:19.421Z,3.15
2022-07-31T03:48:51.987Z,3.03
2022-07-31T03:51:20.941Z,3.38
2022-07-31T03:53:52.781Z,3.25
2022-07-31T03:56:21.738Z,3.28
2022-07-31T03:58:52.380Z,3.40
2022-07-31T04:01:22.121Z,3.17
2022-07-31T04:03:50.545Z,2.90
2022-07-31T04:06:18.877Z,3.03
2022-07-31T04:08:47.221Z,3.45
2022-07-31T04:11:17.242Z,3.40
2022-07-31T04:13:45.625Z,3.28
2022-07-31T04:16:13.918Z,3.20
2022-07-31T04:18:42.258Z,2.97
2022-07-31T04:21:19.116Z,3.05
2022-07-31T04:23:49.497Z,3.17
2022-07-31T04:26:26.112Z,3.00
2022-07-31T04:28:54.863Z,3.22
2022-07-31T04:31:23.261Z,2.95
2022-07-31T04:33:56.146Z,3.05
2022-07-31T04:36:29.891Z,2.95
2022-07-31T04:38:59.144Z,3.15
2022-07-31T04:41:29.572Z,3.13
2022-07-31T04:43:58.578Z,3.03
2022-07-31T04:46:27.087Z,3.22
2022-07-31T04:48:55.425Z,3.28
2022-07-31T04:51:25.061Z,3.10
2022-07-31T04:53:53.493Z,3.42
2022-07-31T04:56:43.073Z,3.08
2022-07-31T04:59:14.873Z,3.30
2022-07-31T05:01:44.231Z,3.10
2022-07-31T05:04:13.217Z,2.83
2022-07-31T05:06:43.330Z,3.35
2022-07-31T05:09:18.804Z,3.38
2022-07-31T05:11:48.545Z,3.20
2022-07-31T05:14:19.967Z,3.00
2022-07-31T05:16:48.964Z,2.90
2022-07-31T05:19:17.995Z,3.00
2022-07-31T05:21:54.570Z,3.58
2022-07-31T05:24:33.260Z,3.05
2022-07-31T05:27:03.083Z,3.50
2022-07-31T05:29:33.744Z,3.67
2022-07-31T05:32:02.784Z,3.58
2022-07-31T05:34:31.558Z,3.15
2022-07-31T05:37:01.340Z,3.15
2022-07-31T05:39:30.396Z,3.55
2022-07-31T05:41:58.803Z,5.28
2022-07-31T05:44:27.127Z,5.63
2022-07-31T05:49:26.975Z,5.05
2022-07-31T05:51:55.431Z,4.53
2022-07-31T05:54:23.915Z,5.50
2022-07-31T05:56:52.266Z,5.22
2022-07-31T05:59:20.788Z,3.92
2022-07-31T06:01:49.210Z,3.22
2022-07-31T06:04:19.058Z,3.70
2022-07-31T06:06:47.379Z,4.60
2022-07-31T06:09:15.683Z,5.85
2022-07-31T06:11:44.022Z,5.28
2022-07-31T06:14:12.310Z,6.30
2022-07-31T06:16:40.633Z,5.00
2022-07-31T06:19:08.976Z,5.68
2022-07-31T06:21:38.699Z,5.72
2022-07-31T06:24:08.093Z,5.13
2022-07-31T06:26:37.331Z,4.68
2022-07-31T06:29:05.999Z,4.38
2022-07-31T06:31:34.474Z,4.22
2022-07-31T06:34:02.773Z,3.97
2022-07-31T06:36:31.126Z,4.70
2022-07-31T06:39:00.880Z,3.70
2022-07-31T06:41:48.298Z,3.58
2022-07-31T06:44:17.221Z,3.30
2022-07-31T06:46:49.049Z,3.72
2022-07-31T06:49:18.165Z,3.70
2022-07-31T06:51:46.694Z,3.20
2022-07-31T06:54:16.519Z,3.17
2022-07-31T06:56:45.060Z,3.20
2022-07-31T06:59:13.421Z,3.05
2022-07-31T07:02:02.143Z,2.78
2022-07-31T07:05:00.048Z,2.60
2022-07-31T07:07:20.780Z,2.75
2022-07-31T07:09:50.486Z,2.60
2022-07-31T07:12:19.081Z,2.60
2022-07-31T07:14:50.686Z,2.88
2022-07-31T07:17:19.016Z,2.72
2022-07-31T07:19:49.560Z,2.60
2022-07-31T07:22:29.939Z,3.10
2022-07-31T07:25:01.870Z,2.97
2022-07-31T07:27:30.336Z,3.08
2022-07-31T07:29:58.819Z,2.50
2022-07-31T07:32:27.123Z,2.88
2022-07-31T07:34:59.992Z,3.22
2022-07-31T07:37:29.918Z,3.00
2022-07-31T07:40:03.595Z,3.20
2022-07-31T07:42:33.846Z,3.00
2022-07-31T07:45:06.544Z,2.78
2022-07-31T07:48:02.883Z,2.85
2022-07-31T07:50:26.943Z,2.70
2022-07-31T07:52:58.108Z,2.70
2022-07-31T07:55:27.179Z,2.92
2022-07-31T07:57:56.952Z,2.97
2022-07-31T08:00:26.055Z,3.03
2022-07-31T08:03:50.441Z,2.70
2022-07-31T08:05:43.168Z,2.97
2022-07-31T08:08:11.678Z,2.92
2022-07-31T08:10:41.231Z,3.08
2022-07-31T08:13:13.085Z,3.35
2022-07-31T08:15:41.485Z,2.83
2022-07-31T08:18:09.775Z,3.10
2022-07-31T08:20:38.647Z,3.42
2022-07-31T08:23:07.255Z,2.80
2022-07-31T08:25:35.596Z,2.72
2022-07-31T08:28:03.939Z,2.92
2022-07-31T08:30:35.844Z,2.90
2022-07-31T08:33:04.277Z,2.90
2022-07-31T08:35:32.805Z,2.80
2022-07-31T08:38:03.219Z,3.00
2022-07-31T08:40:42.729Z,2.85
2022-07-31T08:44:00.331Z,2.83
2022-07-31T08:46:03.864Z,2.83
2022-07-31T08:48:34.334Z,2.80
2022-07-31T08:51:04.672Z,2.92
2022-07-31T08:53:38.276Z,2.83
2022-07-31T08:56:09.563Z,2.90
2022-07-31T08:58:39.935Z,2.88
2022-07-31T09:01:13.762Z,3.03
2022-07-31T09:03:42.247Z,2.80
2022-07-31T09:06:10.976Z,2.97
2022-07-31T09:08:40.058Z,3.08
2022-07-31T09:11:11.700Z,3.22
2022-07-31T09:13:40.589Z,3.00
2022-07-31T09:16:10.407Z,3.20
2022-07-31T09:18:38.781Z,3.10
2022-07-31T09:21:08.477Z,2.90
2022-07-31T09:23:46.380Z,2.90
2022-07-31T09:26:15.373Z,3.20
2022-07-31T09:28:46.562Z,3.33
2022-07-31T09:31:16.727Z,2.88
2022-07-31T09:33:46.169Z,3.03
2022-07-31T09:36:15.163Z,3.10
2022-07-31T09:38:44.725Z,3.03
2022-07-31T09:41:56.812Z,3.10
2022-07-31T09:44:10.040Z,3.13
2022-07-31T09:46:45.293Z,2.83
2022-07-31T09:49:14.058Z,3.15
2022-07-31T09:51:43.667Z,3.33
2022-07-31T09:54:22.796Z,3.08
2022-07-31T09:56:51.573Z,3.08
2022-07-31T09:59:20.108Z,2.88
2022-07-31T10:01:50.947Z,3.00
2022-07-31T10:04:20.726Z,2.90
2022-07-31T10:06:50.391Z,3.10
2022-07-31T10:09:21.891Z,2.65
2022-07-31T10:11:51.447Z,2.80
2022-07-31T10:14:25.916Z,2.67
2022-07-31T10:16:58.430Z,2.85
2022-07-31T10:19:28.774Z,2.63
2022-07-31T10:22:01.514Z,2.45
2022-07-31T10:24:33.132Z,2.60
2022-07-31T10:27:07.915Z,2.72
2022-07-31T10:29:40.409Z,2.80
2022-07-31T10:32:10.700Z,2.78
2022-07-31T10:34:39.999Z,2.78
2022-07-31T10:37:14.670Z,2.75
2022-07-31T10:39:50.755Z,2.67
2022-07-31T10:42:31.719Z,2.63
2022-07-31T10:45:09.861Z,2.80
2022-07-31T10:47:39.601Z,2.75
2022-07-31T10:50:23.176Z,2.65
2022-07-31T10:52:51.727Z,2.42
2022-07-31T10:55:22.503Z,2.58
2022-07-31T10:57:55.837Z,2.63
2022-07-31T11:00:30.077Z,2.70
2022-07-31T11:03:00.014Z,2.60
2022-07-31T11:05:28.828Z,2.78
2022-07-31T11:08:03.264Z,2.55
2022-07-31T11:10:34.202Z,2.95
2022-07-31T11:13:04.521Z,2.70
2022-07-31T11:15:33.753Z,2.72
2022-07-31T11:18:23.887Z,2.83
2022-07-31T11:21:09.467Z,2.83
2022-07-31T11:24:02.268Z,2.83
2022-07-31T11:26:32.950Z,2.60
2022-07-31T11:29:59.507Z,2.47
2022-07-31T11:32:13.402Z,2.30
2022-07-31T11:34:51.031Z,2.25
2022-07-31T11:37:20.673Z,2.83
2022-07-31T11:39:52.468Z,2.80
2022-07-31T11:42:27.675Z,2.75
2022-07-31T11:45:11.064Z,1.95
2022-07-31T11:48:11.292Z,2.75
2022-07-31T11:50:32.480Z,2.33
2022-07-31T11:53:07.111Z,2.33
2022-07-31T11:55:46.591Z,1.95
2022-07-31T11:58:15.935Z,2.20
2022-07-31T12:00:51.998Z,2.00
2022-07-31T12:03:22.365Z,2.40
2022-07-31T12:05:53.533Z,2.33
2022-07-31T12:08:22.826Z,1.92
2022-07-31T12:10:53.589Z,1.80
2022-07-31T12:13:22.720Z,1.88
2022-07-31T12:15:59.505Z,1.73
2022-07-31T12:18:28.992Z,1.60
2022-07-31T12:21:00.404Z,1.50
2022-07-31T12:23:41.504Z,1.50
2022-07-31T12:26:13.886Z,1.92
2022-07-31T12:28:43.783Z,2.03
2022-07-31T12:31:12.141Z,1.92
2022-07-31T12:33:44.495Z,1.85
2022-07-31T12:36:18.301Z,1.75
2022-07-31T12:38:49.126Z,1.63
2022-07-31T12:41:18.006Z,1.75
2022-07-31T12:43:52.114Z,2.10
2022-07-31T12:46:22.474Z,1.85
2022-07-31T12:48:52.110Z,2.13
2022-07-31T12:51:44.692Z,2.20
2022-07-31T12:54:11.218Z,2.25
2022-07-31T12:56:41.205Z,2.08
2022-07-31T12:59:10.423Z,1.92
2022-07-31T13:01:39.599Z,1.75
2022-07-31T13:04:19.183Z,1.88
2022-07-31T13:06:52.535Z,2.10
2022-07-31T13:09:21.212Z,1.90
2022-07-31T13:11:53.244Z,1.80
2022-07-31T13:14:25.129Z,2.35
2022-07-31T13:16:55.126Z,1.98
2022-07-31T13:19:23.533Z,1.92
2022-07-31T13:21:56.636Z,1.83
2022-07-31T13:24:25.770Z,1.80
2022-07-31T13:26:54.113Z,1.98
2022-07-31T13:29:22.474Z,2.10
2022-07-31T13:31:50.801Z,2.30
2022-07-31T13:34:19.166Z,2.33
2022-07-31T13:36:47.513Z,2.28
2022-07-31T13:39:17.281Z,2.17
2022-07-31T13:41:45.749Z,2.30
2022-07-31T13:44:14.093Z,2.20
2022-07-31T13:46:42.462Z,2.13
2022-07-31T13:49:11.764Z,2.10
2022-07-31T13:51:40.841Z,2.10
2022-07-31T13:54:09.554Z,2.50
2022-07-31T13:56:42.847Z,2.30
2022-07-31T13:59:12.958Z,1.92
2022-07-31T14:02:03.296Z,2.55
2022-07-31T14:04:32.726Z,2.42
2022-07-31T14:07:07.656Z,2.60
2022-07-31T14:09:37.715Z,2.40
2022-07-31T14:12:08.632Z,2.65
2022-07-31T14:14:38.153Z,2.40
2022-07-31T14:17:06.594Z,2.28
2022-07-31T14:19:44.130Z,2.45
2022-07-31T14:22:14.198Z,2.30
2022-07-31T14:24:49.363Z,2.25
2022-07-31T14:27:21.969Z,2.70
2022-07-31T14:29:50.847Z,2.13
2022-07-31T14:32:19.742Z,2.13
2022-07-31T14:34:48.134Z,2.20
2022-07-31T14:37:16.576Z,2.47
2022-07-31T14:39:45.049Z,2.38
2022-07-31T14:42:13.904Z,2.40
2022-07-31T14:44:43.793Z,2.25
2022-07-31T14:47:12.870Z,2.50
2022-07-31T14:50:09.425Z,2.65
2022-07-31T14:52:30.678Z,2.58
2022-07-31T14:55:00.734Z,2.65
2022-07-31T14:57:30.024Z,2.40
2022-07-31T14:59:59.877Z,2.65
2022-07-31T15:02:28.621Z,2.67
2022-07-31T15:04:57.115Z,2.15
2022-07-31T15:07:35.421Z,2.63
2022-07-31T15:10:05.842Z,2.47
2022-07-31T15:12:34.420Z,2.45
2022-07-31T15:15:04.213Z,2.42
2022-07-31T15:17:32.582Z,2.47
2022-07-31T15:20:00.947Z,2.58
2022-07-31T15:22:29.338Z,2.63
2022-07-31T15:24:57.646Z,2.47
2022-07-31T15:27:26.066Z,2.78
2022-07-31T15:30:06.107Z,2.10
2022-07-31T15:32:39.364Z,2.70
2022-07-31T15:35:09.639Z,2.40
2022-07-31T15:37:39.168Z,2.78
2022-07-31T15:40:09.628Z,2.60
2022-07-31T15:42:40.714Z,2.72
2022-07-31T15:45:10.909Z,2.50
2022-07-31T15:47:41.345Z,2.70
2022-07-31T15:50:11.945Z,2.50
2022-07-31T15:52:41.226Z,3.03
2022-07-31T15:55:10.822Z,2.80
2022-07-31T15:57:39.280Z,2.45
2022-07-31T16:00:10.727Z,2.60
2022-07-31T16:02:42.371Z,3.03
2022-07-31T16:05:22.194Z,2.88
2022-07-31T16:08:32.920Z,2.72
2022-07-31T16:10:52.616Z,3.08
2022-07-31T16:13:22.569Z,2.58
2022-07-31T16:15:51.073Z,2.95
2022-07-31T16:18:21.086Z,2.80
2022-07-31T16:20:49.767Z,2.75
2022-07-31T16:23:18.088Z,2.80
2022-07-31T16:25:46.462Z,2.45
2022-07-31T16:28:15.172Z,2.92
2022-07-31T16:30:43.943Z,2.53
2022-07-31T16:33:12.527Z,3.08
2022-07-31T16:35:42.317Z,3.20
2022-07-31T16:38:10.813Z,3.05
2022-07-31T16:40:39.586Z,2.70
2022-07-31T16:43:50.248Z,2.63
2022-07-31T16:45:58.106Z,2.70
2022-07-31T16:48:26.654Z,2.40
2022-07-31T16:50:56.473Z,2.58
2022-07-31T16:54:11.198Z,2.78
2022-07-31T16:56:15.211Z,2.83
2022-07-31T16:58:44.920Z,2.80
2022-07-31T17:01:56.944Z,2.35
2022-07-31T17:04:03.981Z,2.10
2022-07-31T17:06:37.335Z,2.47
2022-07-31T17:09:16.499Z,2.28
2022-07-31T17:11:47.328Z,2.03
2022-07-31T17:14:16.362Z,1.83
2022-07-31T17:16:47.963Z,1.67
2022-07-31T17:19:41.293Z,2.05
2022-07-31T17:22:11.362Z,2.13
2022-07-31T17:24:42.489Z,2.28
2022-07-31T17:27:11.222Z,1.58
2022-07-31T17:29:40.327Z,1.55
2022-07-31T17:32:11.249Z,1.80
2022-07-31T17:34:40.468Z,1.42
2022-07-31T17:37:10.382Z,1.30
2022-07-31T17:39:38.864Z,1.52
2022-07-31T17:42:09.512Z,1.75
2022-07-31T17:44:38.031Z,1.45
2022-07-31T17:47:09.635Z,1.73
2022-07-31T17:49:38.441Z,1.50
2022-07-31T17:52:07.489Z,1.50
2022-07-31T17:54:37.309Z,1.55
2022-07-31T17:57:06.325Z,1.52
2022-07-31T17:59:34.936Z,1.15
2022-07-31T18:02:04.818Z,1.45
2022-07-31T18:04:34.899Z,1.48
2022-07-31T18:07:05.267Z,1.13
2022-07-31T18:09:33.727Z,1.40
2022-07-31T18:12:04.776Z,1.40
2022-07-31T18:14:33.427Z,1.90
2022-07-31T18:17:01.818Z,1.40
2022-07-31T18:19:30.197Z,1.80
2022-07-31T18:21:58.676Z,1.40
2022-07-31T18:24:27.065Z,1.55
2022-07-31T18:26:55.669Z,1.27
2022-07-31T18:29:25.405Z,1.25
2022-07-31T18:31:53.778Z,1.42
2022-07-31T18:34:22.131Z,1.40
2022-07-31T18:36:54.431Z,1.35
2022-07-31T18:39:23.931Z,1.40
2022-07-31T18:41:52.409Z,1.15
2022-07-31T18:44:22.072Z,1.33
2022-07-31T18:46:53.177Z,1.40
2022-07-31T18:51:01.467Z,1.45
2022-07-31T18:52:10.437Z,1.27
2022-07-31T18:54:39.348Z,1.55
2022-07-31T18:57:08.148Z,1.30
2022-07-31T18:59:36.698Z,1.33
2022-07-31T19:02:08.743Z,1.38
2022-07-31T19:04:40.022Z,1.23
2022-07-31T19:07:08.828Z,1.50
2022-07-31T19:09:37.332Z,1.20
2022-07-31T19:12:08.486Z,1.30
2022-07-31T19:14:37.280Z,1.45
2022-07-31T19:17:08.450Z,1.27
2022-07-31T19:19:55.231Z,1.38
2022-07-31T19:22:25.530Z,1.33
2022-07-31T19:24:53.904Z,1.30
2022-07-31T19:27:22.468Z,1.50
2022-07-31T19:30:13.304Z,1.10
2022-07-31T19:32:43.121Z,1.30
2022-07-31T19:35:12.205Z,1.30
2022-07-31T19:37:40.954Z,1.30
2022-07-31T19:40:10.643Z,1.40
2022-07-31T19:42:39.972Z,1.20
2022-07-31T19:45:09.391Z,1.15
2022-07-31T19:47:38.435Z,1.30
2022-07-31T19:50:12.084Z,1.50
2022-07-31T19:52:40.706Z,1.30
2022-07-31T19:55:10.787Z,1.40
2022-07-31T19:57:39.224Z,1.30
2022-07-31T20:00:09.715Z,1.38
2022-07-31T20:02:38.428Z,1.13
2022-07-31T20:05:10.990Z,1.30
2022-07-31T20:07:39.403Z,1.30
2022-07-31T20:10:09.819Z,1.20
2022-07-31T20:12:39.701Z,1.02
2022-07-31T20:15:09.687Z,1.40
2022-07-31T20:17:38.624Z,1.50
2022-07-31T20:20:15.457Z,1.20
2022-07-31T20:22:44.491Z,1.38
2022-07-31T20:25:20.009Z,1.30
2022-07-31T20:27:49.420Z,1.30
2022-07-31T20:30:22.072Z,1.42
2022-07-31T20:32:51.591Z,1.30
2022-07-31T20:35:29.192Z,1.15
2022-07-31T20:38:13.972Z,1.35
2022-07-31T20:40:48.228Z,1.25
2022-07-31T20:43:22.680Z,1.35
2022-07-31T20:45:53.179Z,1.33
2022-07-31T20:48:24.643Z,1.48
2022-07-31T20:50:54.544Z,1.40
2022-07-31T20:53:23.224Z,1.40
2022-07-31T20:55:51.831Z,1.30
2022-07-31T20:58:20.910Z,1.40
2022-07-31T21:00:49.733Z,1.33
2022-07-31T21:03:19.427Z,1.30
2022-07-31T21:05:48.434Z,1.25
2022-07-31T21:08:18.433Z,1.42
2022-07-31T21:10:46.905Z,1.45
2022-07-31T21:13:15.307Z,1.70
2022-07-31T21:15:45.353Z,1.48
2022-07-31T21:18:15.170Z,1.33
2022-07-31T21:20:51.843Z,1.50
2022-07-31T21:23:24.619Z,1.30
2022-07-31T21:25:53.631Z,1.55
2022-07-31T21:28:23.215Z,1.42
2022-07-31T21:30:53.741Z,1.40
2022-07-31T21:33:22.605Z,1.50
2022-07-31T21:35:51.422Z,1.25
2022-07-31T21:38:20.463Z,1.40
2022-07-31T21:40:50.956Z,1.27
2022-07-31T21:43:22.669Z,1.38
2022-07-31T21:45:57.951Z,1.40
2022-07-31T21:48:31.438Z,1.38
2022-07-31T21:51:01.039Z,1.30
2022-07-31T21:53:29.442Z,1.40
2022-07-31T21:56:03.941Z,1.23
2022-07-31T21:58:32.303Z,1.33
2022-07-31T22:01:01.034Z,1.65
2022-07-31T22:03:29.453Z,1.45
2022-07-31T22:06:15.227Z,1.23
2022-07-31T22:08:43.817Z,1.63
2022-07-31T22:11:13.532Z,1.33
2022-07-31T22:13:42.044Z,1.10
2022-07-31T22:16:10.465Z,1.35
2022-07-31T22:18:39.171Z,1.20
2022-07-31T22:21:09.559Z,1.30
2022-07-31T22:23:38.327Z,1.20
2022-07-31T22:26:07.176Z,1.48
2022-07-31T22:28:37.080Z,1.40
2022-07-31T22:31:06.032Z,1.25
2022-07-31T22:33:34.458Z,1.27
2022-07-31T22:36:07.227Z,1.55
2022-07-31T22:38:38.056Z,1.60
2022-07-31T22:41:06.654Z,1.40
2022-07-31T22:44:11.415Z,1.30
2022-07-31T22:46:25.179Z,1.60
2022-07-31T22:48:55.599Z,1.52
2022-07-31T22:51:24.155Z,1.50
2022-07-31T22:53:52.487Z,1.30
2022-07-31T22:56:20.953Z,1.30
2022-07-31T22:58:50.667Z,1.80
2022-07-31T23:01:19.027Z,1.33
2022-07-31T23:03:47.360Z,1.52
2022-07-31T23:06:31.432Z,1.67
2022-07-31T23:09:01.527Z,1.35
2022-07-31T23:11:30.338Z,1.45
2022-07-31T23:14:00.056Z,1.50
2022-07-31T23:16:28.487Z,1.35
2022-07-31T23:18:57.071Z,1.40
2022-07-31T23:21:25.562Z,1.42
2022-07-31T23:23:54.049Z,1.40
2022-07-31T23:26:24.986Z,1.58
2022-07-31T23:28:54.977Z,1.50
2022-07-31T23:31:25.140Z,1.40
2022-07-31T23:33:53.844Z,1.50
2022-07-31T23:36:22.301Z,1.55
2022-07-31T23:38:51.179Z,1.65
2022-07-31T23:41:41.040Z,1.70
2022-07-31T23:44:10.569Z,1.70
2022-07-31T23:46:40.661Z,1.77
2022-07-31T23:49:09.601Z,1.70
2022-07-31T23:51:38.047Z,1.77
2022-07-31T23:54:06.460Z,1.70
2022-07-31T23:56:34.926Z,1.52
2022-07-31T23:59:03.239Z,1.83
